sensor_id;sensor_type;location;lat;lon;timestamp;P1;durP1;ratioP1;P2;durP2;ratioP2
70122;SDS011;57489;37.404;24.920;2023-09-18T00:04:14;8.20;;;4.37;;
70122;SDS011;57489;37.404;24.920;2023-09-18T00:09:15;8.27;;;4.13;;
70122;SDS011;57489;37.404;24.920;2023-09-18T00:14:16;7.90;;;3.63;;
70122;SDS011;57489;37.404;24.920;2023-09-18T00:19:16;8.52;;;4.10;;
70122;SDS011;57489;37.404;24.920;2023-09-18T00:24:17;6.00;;;3.33;;
70122;SDS011;57489;37.404;24.920;2023-09-18T00:29:17;13.03;;;3.90;;
70122;SDS011;57489;37.404;24.920;2023-09-18T00:34:18;8.27;;;3.73;;
70122;SDS011;57489;37.404;24.920;2023-09-18T00:39:18;12.70;;;4.00;;
70122;SDS011;57489;37.404;24.920;2023-09-18T00:44:19;8.33;;;3.77;;
70122;SDS011;57489;37.404;24.920;2023-09-18T00:49:22;8.20;;;4.53;;
70122;SDS011;57489;37.404;24.920;2023-09-18T00:54:24;8.60;;;4.23;;
70122;SDS011;57489;37.404;24.920;2023-09-18T00:59:24;10.00;;;4.00;;
70122;SDS011;57489;37.404;24.920;2023-09-18T01:04:25;8.63;;;3.20;;
70122;SDS011;57489;37.404;24.920;2023-09-18T01:09:27;8.53;;;3.73;;
70122;SDS011;57489;37.404;24.920;2023-09-18T01:19:43;11.73;;;3.27;;
70122;SDS011;57489;37.404;24.920;2023-09-18T01:24:46;8.32;;;3.90;;
70122;SDS011;57489;37.404;24.920;2023-09-18T01:29:47;7.90;;;3.65;;
70122;SDS011;57489;37.404;24.920;2023-09-18T01:34:48;11.87;;;3.73;;
70122;SDS011;57489;37.404;24.920;2023-09-18T01:39:51;7.38;;;3.60;;
70122;SDS011;57489;37.404;24.920;2023-09-18T01:44:53;6.77;;;3.50;;
70122;SDS011;57489;37.404;24.920;2023-09-18T01:49:54;7.23;;;3.50;;
70122;SDS011;57489;37.404;24.920;2023-09-18T01:54:54;9.03;;;3.90;;
70122;SDS011;57489;37.404;24.920;2023-09-18T01:59:55;7.63;;;4.13;;
70122;SDS011;57489;37.404;24.920;2023-09-18T02:04:55;8.18;;;3.25;;
70122;SDS011;57489;37.404;24.920;2023-09-18T02:09:56;8.07;;;3.33;;
70122;SDS011;57489;37.404;24.920;2023-09-18T02:14:56;6.30;;;2.80;;
70122;SDS011;57489;37.404;24.920;2023-09-18T02:19:57;9.13;;;3.53;;
70122;SDS011;57489;37.404;24.920;2023-09-18T02:24:57;6.90;;;3.50;;
70122;SDS011;57489;37.404;24.920;2023-09-18T02:29:58;8.37;;;3.33;;
70122;SDS011;57489;37.404;24.920;2023-09-18T02:34:58;7.50;;;3.00;;
70122;SDS011;57489;37.404;24.920;2023-09-18T02:39:58;8.83;;;3.30;;
70122;SDS011;57489;37.404;24.920;2023-09-18T02:44:59;10.10;;;3.90;;
70122;SDS011;57489;37.404;24.920;2023-09-18T02:49:59;9.47;;;3.80;;
70122;SDS011;57489;37.404;24.920;2023-09-18T02:55:00;8.95;;;3.30;;
70122;SDS011;57489;37.404;24.920;2023-09-18T03:00:00;7.40;;;3.13;;
70122;SDS011;57489;37.404;24.920;2023-09-18T03:05:01;8.83;;;3.03;;
70122;SDS011;57489;37.404;24.920;2023-09-18T03:10:02;7.90;;;3.53;;
70122;SDS011;57489;37.404;24.920;2023-09-18T03:15:03;8.30;;;2.85;;
70122;SDS011;57489;37.404;24.920;2023-09-18T03:20:04;8.90;;;3.13;;
70122;SDS011;57489;37.404;24.920;2023-09-18T03:25:05;9.60;;;3.28;;
70122;SDS011;57489;37.404;24.920;2023-09-18T03:30:06;9.35;;;3.10;;
70122;SDS011;57489;37.404;24.920;2023-09-18T03:35:07;8.03;;;2.53;;
70122;SDS011;57489;37.404;24.920;2023-09-18T03:40:08;8.10;;;3.05;;
70122;SDS011;57489;37.404;24.920;2023-09-18T03:45:09;6.10;;;2.77;;
70122;SDS011;57489;37.404;24.920;2023-09-18T03:50:10;9.77;;;2.80;;
70122;SDS011;57489;37.404;24.920;2023-09-18T03:55:11;7.55;;;2.78;;
70122;SDS011;57489;37.404;24.920;2023-09-18T04:00:12;8.13;;;3.20;;
70122;SDS011;57489;37.404;24.920;2023-09-18T04:05:12;8.67;;;3.47;;
70122;SDS011;57489;37.404;24.920;2023-09-18T04:10:14;8.07;;;3.10;;
70122;SDS011;57489;37.404;24.920;2023-09-18T04:15:15;11.65;;;3.30;;
70122;SDS011;57489;37.404;24.920;2023-09-18T04:20:15;11.13;;;4.33;;
70122;SDS011;57489;37.404;24.920;2023-09-18T04:25:16;17.80;;;4.63;;
70122;SDS011;57489;37.404;24.920;2023-09-18T04:30:16;19.83;;;5.57;;
70122;SDS011;57489;37.404;24.920;2023-09-18T04:35:17;22.80;;;5.57;;
70122;SDS011;57489;37.404;24.920;2023-09-18T04:40:17;22.77;;;6.03;;
70122;SDS011;57489;37.404;24.920;2023-09-18T04:45:18;25.43;;;5.30;;
70122;SDS011;57489;37.404;24.920;2023-09-18T04:50:19;13.13;;;4.90;;
70122;SDS011;57489;37.404;24.920;2023-09-18T04:55:19;20.02;;;4.47;;
70122;SDS011;57489;37.404;24.920;2023-09-18T05:00:20;14.93;;;5.20;;
70122;SDS011;57489;37.404;24.920;2023-09-18T05:05:20;17.37;;;5.07;;
70122;SDS011;57489;37.404;24.920;2023-09-18T05:10:21;19.10;;;6.00;;
70122;SDS011;57489;37.404;24.920;2023-09-18T05:15:21;19.83;;;5.17;;
70122;SDS011;57489;37.404;24.920;2023-09-18T05:20:22;22.27;;;5.43;;
70122;SDS011;57489;37.404;24.920;2023-09-18T05:25:23;14.10;;;5.03;;
70122;SDS011;57489;37.404;24.920;2023-09-18T05:30:32;21.65;;;5.10;;
70122;SDS011;57489;37.404;24.920;2023-09-18T05:35:35;12.27;;;4.40;;
70122;SDS011;57489;37.404;24.920;2023-09-18T05:40:40;15.57;;;5.00;;
70122;SDS011;57489;37.404;24.920;2023-09-18T05:45:40;19.48;;;5.72;;
70122;SDS011;57489;37.404;24.920;2023-09-18T05:50:41;18.10;;;4.97;;
70122;SDS011;57489;37.404;24.920;2023-09-18T05:55:41;17.33;;;4.50;;
70122;SDS011;57489;37.404;24.920;2023-09-18T06:00:42;15.23;;;4.43;;
70122;SDS011;57489;37.404;24.920;2023-09-18T06:05:42;13.37;;;4.10;;
70122;SDS011;57489;37.404;24.920;2023-09-18T06:10:43;14.50;;;4.47;;
70122;SDS011;57489;37.404;24.920;2023-09-18T06:15:43;10.77;;;3.88;;
70122;SDS011;57489;37.404;24.920;2023-09-18T06:20:44;12.83;;;3.73;;
70122;SDS011;57489;37.404;24.920;2023-09-18T06:25:44;12.17;;;3.40;;
70122;SDS011;57489;37.404;24.920;2023-09-18T06:30:45;9.07;;;3.00;;
70122;SDS011;57489;37.404;24.920;2023-09-18T06:35:45;14.53;;;4.10;;
70122;SDS011;57489;37.404;24.920;2023-09-18T06:40:46;11.77;;;3.70;;
70122;SDS011;57489;37.404;24.920;2023-09-18T06:45:46;9.97;;;3.27;;
70122;SDS011;57489;37.404;24.920;2023-09-18T06:50:47;9.40;;;3.25;;
70122;SDS011;57489;37.404;24.920;2023-09-18T06:55:47;10.53;;;2.93;;
70122;SDS011;57489;37.404;24.920;2023-09-18T07:00:48;9.10;;;3.50;;
70122;SDS011;57489;37.404;24.920;2023-09-18T07:05:48;10.00;;;2.83;;
70122;SDS011;57489;37.404;24.920;2023-09-18T07:10:50;9.67;;;3.17;;
70122;SDS011;57489;37.404;24.920;2023-09-18T07:15:50;9.90;;;2.85;;
70122;SDS011;57489;37.404;24.920;2023-09-18T07:20:51;9.17;;;2.63;;
70122;SDS011;57489;37.404;24.920;2023-09-18T07:25:51;10.10;;;2.67;;
70122;SDS011;57489;37.404;24.920;2023-09-18T07:30:51;8.60;;;3.00;;
70122;SDS011;57489;37.404;24.920;2023-09-18T07:35:52;13.03;;;3.07;;
70122;SDS011;57489;37.404;24.920;2023-09-18T07:40:52;8.70;;;2.65;;
70122;SDS011;57489;37.404;24.920;2023-09-18T07:45:53;7.27;;;2.53;;
70122;SDS011;57489;37.404;24.920;2023-09-18T07:50:53;8.77;;;2.60;;
70122;SDS011;57489;37.404;24.920;2023-09-18T07:55:57;7.77;;;2.33;;
70122;SDS011;57489;37.404;24.920;2023-09-18T08:00:58;9.18;;;2.83;;
70122;SDS011;57489;37.404;24.920;2023-09-18T08:05:59;8.03;;;3.13;;
70122;SDS011;57489;37.404;24.920;2023-09-18T08:11:00;8.10;;;2.50;;
70122;SDS011;57489;37.404;24.920;2023-09-18T08:16:07;11.38;;;3.25;;
70122;SDS011;57489;37.404;24.920;2023-09-18T08:21:08;7.93;;;2.13;;
70122;SDS011;57489;37.404;24.920;2023-09-18T08:26:08;10.23;;;2.77;;
70122;SDS011;57489;37.404;24.920;2023-09-18T08:31:09;6.90;;;2.43;;
70122;SDS011;57489;37.404;24.920;2023-09-18T08:36:09;6.87;;;2.67;;
70122;SDS011;57489;37.404;24.920;2023-09-18T08:41:11;7.13;;;2.23;;
70122;SDS011;57489;37.404;24.920;2023-09-18T08:46:12;7.65;;;2.28;;
70122;SDS011;57489;37.404;24.920;2023-09-18T08:51:12;7.60;;;2.37;;
70122;SDS011;57489;37.404;24.920;2023-09-18T08:56:14;7.22;;;2.53;;
70122;SDS011;57489;37.404;24.920;2023-09-18T09:01:17;8.07;;;2.50;;
70122;SDS011;57489;37.404;24.920;2023-09-18T09:06:17;9.70;;;2.83;;
70122;SDS011;57489;37.404;24.920;2023-09-18T09:11:18;6.70;;;2.37;;
70122;SDS011;57489;37.404;24.920;2023-09-18T09:16:18;7.40;;;2.33;;
70122;SDS011;57489;37.404;24.920;2023-09-18T09:21:19;7.20;;;2.73;;
70122;SDS011;57489;37.404;24.920;2023-09-18T09:26:21;7.90;;;2.50;;
70122;SDS011;57489;37.404;24.920;2023-09-18T09:31:26;7.00;;;2.27;;
70122;SDS011;57489;37.404;24.920;2023-09-18T09:36:27;8.37;;;2.60;;
70122;SDS011;57489;37.404;24.920;2023-09-18T09:41:28;7.60;;;3.23;;
70122;SDS011;57489;37.404;24.920;2023-09-18T09:46:28;6.27;;;2.40;;
70122;SDS011;57489;37.404;24.920;2023-09-18T09:51:29;6.80;;;2.45;;
70122;SDS011;57489;37.404;24.920;2023-09-18T10:01:46;8.32;;;2.50;;
70122;SDS011;57489;37.404;24.920;2023-09-18T10:06:50;5.87;;;2.60;;
70122;SDS011;57489;37.404;24.920;2023-09-18T10:11:52;6.03;;;2.70;;
70122;SDS011;57489;37.404;24.920;2023-09-18T10:16:56;9.38;;;2.78;;
70122;SDS011;57489;37.404;24.920;2023-09-18T10:27:21;5.67;;;2.77;;
70122;SDS011;57489;37.404;24.920;2023-09-18T10:32:22;6.35;;;3.15;;
70122;SDS011;57489;37.404;24.920;2023-09-18T10:37:26;7.15;;;2.50;;
70122;SDS011;57489;37.404;24.920;2023-09-18T10:42:29;7.87;;;2.50;;
70122;SDS011;57489;37.404;24.920;2023-09-18T10:47:31;6.63;;;2.58;;
70122;SDS011;57489;37.404;24.920;2023-09-18T10:52:34;7.28;;;2.67;;
70122;SDS011;57489;37.404;24.920;2023-09-18T10:57:35;5.63;;;2.20;;
70122;SDS011;57489;37.404;24.920;2023-09-18T11:02:36;8.43;;;3.03;;
70122;SDS011;57489;37.404;24.920;2023-09-18T11:07:36;12.10;;;3.03;;
70122;SDS011;57489;37.404;24.920;2023-09-18T11:12:42;12.43;;;3.30;;
70122;SDS011;57489;37.404;24.920;2023-09-18T11:17:44;7.45;;;2.35;;
70122;SDS011;57489;37.404;24.920;2023-09-18T11:22:48;10.93;;;3.07;;
70122;SDS011;57489;37.404;24.920;2023-09-18T11:28:13;9.52;;;3.83;;
70122;SDS011;57489;37.404;24.920;2023-09-18T11:33:14;10.70;;;3.20;;
70122;SDS011;57489;37.404;24.920;2023-09-18T11:38:14;8.50;;;3.10;;
70122;SDS011;57489;37.404;24.920;2023-09-18T11:48:28;7.25;;;2.97;;
70122;SDS011;57489;37.404;24.920;2023-09-18T11:53:29;7.97;;;2.83;;
70122;SDS011;57489;37.404;24.920;2023-09-18T11:58:44;6.90;;;2.63;;
70122;SDS011;57489;37.404;24.920;2023-09-18T12:03:45;7.95;;;2.63;;
70122;SDS011;57489;37.404;24.920;2023-09-18T12:08:46;10.47;;;3.03;;
70122;SDS011;57489;37.404;24.920;2023-09-18T12:13:47;7.63;;;2.60;;
70122;SDS011;57489;37.404;24.920;2023-09-18T12:18:50;7.03;;;2.33;;
70122;SDS011;57489;37.404;24.920;2023-09-18T12:23:51;8.47;;;2.90;;
70122;SDS011;57489;37.404;24.920;2023-09-18T12:28:51;10.77;;;2.50;;
70122;SDS011;57489;37.404;24.920;2023-09-18T12:33:52;6.87;;;2.30;;
70122;SDS011;57489;37.404;24.920;2023-09-18T12:38:55;6.25;;;2.28;;
70122;SDS011;57489;37.404;24.920;2023-09-18T12:43:56;7.87;;;2.70;;
70122;SDS011;57489;37.404;24.920;2023-09-18T12:48:57;10.70;;;2.80;;
70122;SDS011;57489;37.404;24.920;2023-09-18T12:54:01;7.53;;;2.80;;
70122;SDS011;57489;37.404;24.920;2023-09-18T12:59:01;9.93;;;3.07;;
70122;SDS011;57489;37.404;24.920;2023-09-18T13:04:02;8.33;;;2.80;;
70122;SDS011;57489;37.404;24.920;2023-09-18T13:09:15;6.53;;;2.78;;
70122;SDS011;57489;37.404;24.920;2023-09-18T13:14:16;6.93;;;2.77;;
70122;SDS011;57489;37.404;24.920;2023-09-18T13:19:17;9.05;;;2.58;;
70122;SDS011;57489;37.404;24.920;2023-09-18T13:24:24;5.80;;;2.60;;
70122;SDS011;57489;37.404;24.920;2023-09-18T13:29:29;10.80;;;3.50;;
70122;SDS011;57489;37.404;24.920;2023-09-18T13:34:29;8.63;;;3.23;;
70122;SDS011;57489;37.404;24.920;2023-09-18T13:39:30;9.20;;;3.13;;
70122;SDS011;57489;37.404;24.920;2023-09-18T13:44:30;8.73;;;3.10;;
70122;SDS011;57489;37.404;24.920;2023-09-18T13:49:31;9.43;;;3.20;;
70122;SDS011;57489;37.404;24.920;2023-09-18T13:54:31;9.07;;;2.70;;
70122;SDS011;57489;37.404;24.920;2023-09-18T13:59:32;6.27;;;2.60;;
70122;SDS011;57489;37.404;24.920;2023-09-18T14:04:32;6.30;;;2.57;;
70122;SDS011;57489;37.404;24.920;2023-09-18T14:09:32;5.43;;;2.60;;
70122;SDS011;57489;37.404;24.920;2023-09-18T14:14:33;6.27;;;2.83;;
70122;SDS011;57489;37.404;24.920;2023-09-18T14:19:34;6.70;;;2.70;;
70122;SDS011;57489;37.404;24.920;2023-09-18T14:24:35;6.90;;;3.05;;
70122;SDS011;57489;37.404;24.920;2023-09-18T14:29:35;13.67;;;2.90;;
70122;SDS011;57489;37.404;24.920;2023-09-18T14:34:36;13.02;;;3.25;;
70122;SDS011;57489;37.404;24.920;2023-09-18T14:39:36;6.17;;;2.43;;
70122;SDS011;57489;37.404;24.920;2023-09-18T14:44:37;8.00;;;2.47;;
70122;SDS011;57489;37.404;24.920;2023-09-18T14:49:37;5.93;;;2.70;;
70122;SDS011;57489;37.404;24.920;2023-09-18T14:54:38;7.80;;;2.70;;
70122;SDS011;57489;37.404;24.920;2023-09-18T14:59:39;7.63;;;3.28;;
70122;SDS011;57489;37.404;24.920;2023-09-18T15:04:39;8.80;;;3.03;;
70122;SDS011;57489;37.404;24.920;2023-09-18T15:09:40;7.47;;;2.50;;
70122;SDS011;57489;37.404;24.920;2023-09-18T15:14:40;8.03;;;2.93;;
70122;SDS011;57489;37.404;24.920;2023-09-18T15:19:41;6.87;;;2.37;;
70122;SDS011;57489;37.404;24.920;2023-09-18T15:24:41;8.87;;;2.87;;
70122;SDS011;57489;37.404;24.920;2023-09-18T15:29:42;8.50;;;3.33;;
70122;SDS011;57489;37.404;24.920;2023-09-18T15:34:42;7.37;;;2.97;;
70122;SDS011;57489;37.404;24.920;2023-09-18T15:39:43;12.20;;;2.95;;
70122;SDS011;57489;37.404;24.920;2023-09-18T15:44:44;8.90;;;2.77;;
70122;SDS011;57489;37.404;24.920;2023-09-18T15:49:44;8.30;;;3.13;;
70122;SDS011;57489;37.404;24.920;2023-09-18T15:54:44;10.37;;;3.43;;
70122;SDS011;57489;37.404;24.920;2023-09-18T15:59:45;8.23;;;3.33;;
70122;SDS011;57489;37.404;24.920;2023-09-18T16:04:45;6.10;;;2.70;;
70122;SDS011;57489;37.404;24.920;2023-09-18T16:09:46;7.27;;;3.10;;
70122;SDS011;57489;37.404;24.920;2023-09-18T16:14:47;10.83;;;3.93;;
70122;SDS011;57489;37.404;24.920;2023-09-18T16:19:48;10.03;;;3.47;;
70122;SDS011;57489;37.404;24.920;2023-09-18T16:24:48;6.87;;;3.20;;
70122;SDS011;57489;37.404;24.920;2023-09-18T16:29:49;8.57;;;3.77;;
70122;SDS011;57489;37.404;24.920;2023-09-18T16:34:49;7.57;;;2.93;;
70122;SDS011;57489;37.404;24.920;2023-09-18T16:39:49;10.63;;;3.40;;
70122;SDS011;57489;37.404;24.920;2023-09-18T16:44:50;9.70;;;3.70;;
70122;SDS011;57489;37.404;24.920;2023-09-18T16:49:50;6.80;;;3.20;;
70122;SDS011;57489;37.404;24.920;2023-09-18T16:54:51;8.07;;;3.17;;
70122;SDS011;57489;37.404;24.920;2023-09-18T16:59:52;11.00;;;3.17;;
70122;SDS011;57489;37.404;24.920;2023-09-18T17:04:52;7.30;;;3.67;;
70122;SDS011;57489;37.404;24.920;2023-09-18T17:09:53;11.87;;;3.20;;
70122;SDS011;57489;37.404;24.920;2023-09-18T17:14:53;8.43;;;3.37;;
70122;SDS011;57489;37.404;24.920;2023-09-18T17:19:54;9.60;;;3.70;;
70122;SDS011;57489;37.404;24.920;2023-09-18T17:24:54;10.68;;;3.38;;
70122;SDS011;57489;37.404;24.920;2023-09-18T17:29:55;8.83;;;3.80;;
70122;SDS011;57489;37.404;24.920;2023-09-18T17:34:55;9.57;;;3.27;;
70122;SDS011;57489;37.404;24.920;2023-09-18T17:39:56;11.93;;;3.33;;
70122;SDS011;57489;37.404;24.920;2023-09-18T17:44:57;9.00;;;3.60;;
70122;SDS011;57489;37.404;24.920;2023-09-18T17:49:58;7.20;;;3.30;;
70122;SDS011;57489;37.404;24.920;2023-09-18T17:54:58;7.17;;;2.73;;
70122;SDS011;57489;37.404;24.920;2023-09-18T17:59:59;5.67;;;2.70;;
70122;SDS011;57489;37.404;24.920;2023-09-18T18:04:59;6.00;;;2.90;;
70122;SDS011;57489;37.404;24.920;2023-09-18T18:09:59;12.53;;;3.83;;
70122;SDS011;57489;37.404;24.920;2023-09-18T18:15:00;6.87;;;2.70;;
70122;SDS011;57489;37.404;24.920;2023-09-18T18:20:01;7.17;;;2.63;;
70122;SDS011;57489;37.404;24.920;2023-09-18T18:25:01;8.10;;;2.63;;
70122;SDS011;57489;37.404;24.920;2023-09-18T18:30:02;8.67;;;3.00;;
70122;SDS011;57489;37.404;24.920;2023-09-18T18:35:03;8.77;;;2.92;;
70122;SDS011;57489;37.404;24.920;2023-09-18T18:40:04;11.80;;;2.90;;
70122;SDS011;57489;37.404;24.920;2023-09-18T18:45:05;6.63;;;3.03;;
70122;SDS011;57489;37.404;24.920;2023-09-18T18:50:05;5.55;;;2.63;;
70122;SDS011;57489;37.404;24.920;2023-09-18T18:55:06;8.20;;;2.57;;
70122;SDS011;57489;37.404;24.920;2023-09-18T19:00:08;6.47;;;2.67;;
70122;SDS011;57489;37.404;24.920;2023-09-18T19:05:08;4.90;;;2.63;;
70122;SDS011;57489;37.404;24.920;2023-09-18T19:10:09;8.23;;;3.00;;
70122;SDS011;57489;37.404;24.920;2023-09-18T19:15:10;6.90;;;3.20;;
70122;SDS011;57489;37.404;24.920;2023-09-18T19:20:10;8.93;;;2.93;;
70122;SDS011;57489;37.404;24.920;2023-09-18T19:25:11;5.35;;;2.60;;
70122;SDS011;57489;37.404;24.920;2023-09-18T19:30:11;8.17;;;2.53;;
70122;SDS011;57489;37.404;24.920;2023-09-18T19:35:12;6.43;;;2.93;;
70122;SDS011;57489;37.404;24.920;2023-09-18T19:40:13;6.70;;;2.23;;
70122;SDS011;57489;37.404;24.920;2023-09-18T19:45:13;9.53;;;2.77;;
70122;SDS011;57489;37.404;24.920;2023-09-18T19:50:14;6.93;;;3.03;;
70122;SDS011;57489;37.404;24.920;2023-09-18T19:55:14;7.63;;;3.60;;
70122;SDS011;57489;37.404;24.920;2023-09-18T20:00:15;8.80;;;2.50;;
70122;SDS011;57489;37.404;24.920;2023-09-18T20:05:15;7.80;;;2.53;;
70122;SDS011;57489;37.404;24.920;2023-09-18T20:10:16;6.03;;;2.70;;
70122;SDS011;57489;37.404;24.920;2023-09-18T20:15:17;5.83;;;2.60;;
70122;SDS011;57489;37.404;24.920;2023-09-18T20:20:19;7.07;;;2.97;;
70122;SDS011;57489;37.404;24.920;2023-09-18T20:25:20;6.90;;;2.70;;
70122;SDS011;57489;37.404;24.920;2023-09-18T20:30:20;10.00;;;2.63;;
70122;SDS011;57489;37.404;24.920;2023-09-18T20:35:21;7.50;;;2.80;;
70122;SDS011;57489;37.404;24.920;2023-09-18T20:40:21;7.95;;;3.08;;
70122;SDS011;57489;37.404;24.920;2023-09-18T20:45:22;6.87;;;3.07;;
70122;SDS011;57489;37.404;24.920;2023-09-18T20:50:22;12.33;;;2.87;;
70122;SDS011;57489;37.404;24.920;2023-09-18T20:55:23;6.90;;;2.63;;
70122;SDS011;57489;37.404;24.920;2023-09-18T21:00:23;8.35;;;2.90;;
70122;SDS011;57489;37.404;24.920;2023-09-18T21:05:24;12.87;;;2.97;;
70122;SDS011;57489;37.404;24.920;2023-09-18T21:10:24;6.93;;;2.80;;
70122;SDS011;57489;37.404;24.920;2023-09-18T21:15:25;8.13;;;3.00;;
70122;SDS011;57489;37.404;24.920;2023-09-18T21:20:25;10.30;;;3.00;;
70122;SDS011;57489;37.404;24.920;2023-09-18T21:25:26;10.13;;;2.90;;
70122;SDS011;57489;37.404;24.920;2023-09-18T21:30:27;8.47;;;3.03;;
70122;SDS011;57489;37.404;24.920;2023-09-18T21:35:28;9.27;;;2.65;;
70122;SDS011;57489;37.404;24.920;2023-09-18T21:40:31;7.60;;;2.80;;
70122;SDS011;57489;37.404;24.920;2023-09-18T21:45:32;7.15;;;3.20;;
70122;SDS011;57489;37.404;24.920;2023-09-18T21:50:34;9.97;;;2.83;;
70122;SDS011;57489;37.404;24.920;2023-09-18T21:55:35;7.80;;;2.65;;
70122;SDS011;57489;37.404;24.920;2023-09-18T22:00:35;7.43;;;3.00;;
70122;SDS011;57489;37.404;24.920;2023-09-18T22:05:38;7.80;;;3.33;;
70122;SDS011;57489;37.404;24.920;2023-09-18T22:10:39;5.43;;;2.38;;
70122;SDS011;57489;37.404;24.920;2023-09-18T22:15:39;8.13;;;3.20;;
70122;SDS011;57489;37.404;24.920;2023-09-18T22:20:40;9.57;;;3.87;;
70122;SDS011;57489;37.404;24.920;2023-09-18T22:25:40;7.40;;;2.63;;
70122;SDS011;57489;37.404;24.920;2023-09-18T22:30:40;9.63;;;2.92;;
70122;SDS011;57489;37.404;24.920;2023-09-18T22:35:41;6.43;;;2.97;;
70122;SDS011;57489;37.404;24.920;2023-09-18T22:56:57;9.45;;;2.78;;
70122;SDS011;57489;37.404;24.920;2023-09-18T23:01:58;7.97;;;2.67;;
70122;SDS011;57489;37.404;24.920;2023-09-18T23:06:58;6.53;;;2.50;;
70122;SDS011;57489;37.404;24.920;2023-09-18T23:11:59;7.50;;;2.33;;
70122;SDS011;57489;37.404;24.920;2023-09-18T23:17:07;7.47;;;2.80;;
70122;SDS011;57489;37.404;24.920;2023-09-18T23:22:08;9.90;;;2.70;;
70122;SDS011;57489;37.404;24.920;2023-09-18T23:27:09;8.80;;;2.87;;
70122;SDS011;57489;37.404;24.920;2023-09-18T23:32:09;5.00;;;2.33;;
70122;SDS011;57489;37.404;24.920;2023-09-18T23:37:10;6.27;;;2.83;;
70122;SDS011;57489;37.404;24.920;2023-09-18T23:42:10;5.70;;;2.73;;
70122;SDS011;57489;37.404;24.920;2023-09-18T23:47:11;5.90;;;2.60;;
70122;SDS011;57489;37.404;24.920;2023-09-18T23:52:11;6.10;;;2.67;;
70122;SDS011;57489;37.404;24.920;2023-09-18T23:57:12;6.33;;;3.13;;
